Time;durP1;ratioP1;P1;durP2;ratioP2;P2;SDS_P1;SDS_P2;PMS_P1;PMS_P2;Temp;Humidity;BMP_temperature;BMP_pressure;BME280_temperature;BME280_humidity;BME280_pressure;Samples;Min_cycle;Max_cycle;Signal;HPM_P1;HPM_P2
2021/12/09 00:02:20;;;;;;;159.25;81.63;;;;;;;-2.95;81.71;95492.78;1735380;80;21075;-79
2021/12/09 00:04:41;;;;;;;148.85;81.10;;;;;;;-2.89;81.83;95482.15;1769395;80;21117;-80
2021/12/09 00:07:08;;;;;;;142.57;80.38;;;;;;;-2.84;81.80;95480.04;1764204;80;21435;-79
2021/12/09 00:09:33;;;;;;;147.07;84.00;;;;;;;-2.81;81.69;95480.26;1774402;80;21000;-79
2021/12/09 00:12:00;;;;;;;143.60;80.67;;;;;;;-2.81;81.73;95481.53;1760892;80;21038;-79
2021/12/09 00:14:30;;;;;;;156.22;82.45;;;;;;;-2.84;81.63;95474.95;1775286;80;21051;-79
2021/12/09 00:17:00;;;;;;;134.25;77.42;;;;;;;-2.85;81.74;95472.08;1759147;80;21019;-79
2021/12/09 00:19:26;;;;;;;132.47;75.42;;;;;;;-2.85;81.75;95473.81;1775915;80;21015;-80
2021/12/09 00:21:52;;;;;;;138.18;76.45;;;;;;;-2.87;81.74;95466.31;1780971;80;21406;-79
2021/12/09 00:24:18;;;;;;;129.00;73.60;;;;;;;-2.84;81.78;95454.62;1765319;79;21119;-79
2021/12/09 00:26:44;;;;;;;132.32;74.15;;;;;;;-2.83;81.82;95457.97;1760410;80;21067;-80
2021/12/09 00:29:14;;;;;;;96.05;52.17;;;;;;;-2.83;81.77;95460.05;1780763;80;21032;-79
2021/12/09 00:31:40;;;;;;;135.93;73.62;;;;;;;-2.81;81.76;95459.92;1757390;80;21082;-79
2021/12/09 00:34:06;;;;;;;127.00;71.97;;;;;;;-2.89;81.74;95460.55;1762146;80;21363;-79
2021/12/09 00:36:40;;;;;;;129.75;72.05;;;;;;;-2.86;81.85;95463.30;1748859;81;21008;-79
2021/12/09 00:39:04;;;;;;;135.25;73.90;;;;;;;-2.83;81.97;95454.95;1757296;80;21095;-79
2021/12/09 00:41:30;;;;;;;140.47;76.72;;;;;;;-2.78;82.09;95452.84;1755669;80;21082;-80
2021/12/09 00:43:55;;;;;;;135.63;73.78;;;;;;;-2.76;82.08;95445.13;1769077;80;21022;-80
2021/12/09 00:46:21;;;;;;;142.15;78.47;;;;;;;-2.76;82.05;95454.02;1754888;80;21365;-80
2021/12/09 00:48:47;;;;;;;117.33;70.03;;;;;;;-2.73;82.29;95453.30;1764999;80;20979;-80
2021/12/09 00:51:13;;;;;;;121.10;71.02;;;;;;;-2.65;82.21;95449.33;1750931;80;21039;-79
2021/12/09 00:53:38;;;;;;;125.20;65.83;;;;;;;-2.70;82.13;95431.91;1783001;80;21036;-79
2021/12/09 00:56:06;;;;;;;119.85;66.12;;;;;;;-2.72;82.10;95428.69;1788118;80;21010;-79
2021/12/09 00:58:32;;;;;;;125.62;67.95;;;;;;;-2.73;82.26;95437.24;1792919;80;21388;-79
2021/12/09 01:00:58;;;;;;;113.55;65.65;;;;;;;-2.68;82.56;95431.31;1794350;79;21053;-79
2021/12/09 01:03:23;;;;;;;123.42;67.95;;;;;;;-2.60;82.62;95432.78;1796400;79;20976;-80
2021/12/09 01:05:49;;;;;;;111.47;66.42;;;;;;;-2.55;82.70;95418.41;1795056;79;21442;-79
2021/12/09 01:08:15;;;;;;;116.67;65.45;;;;;;;-2.52;82.63;95420.23;1783467;79;20976;-79
2021/12/09 01:10:41;;;;;;;114.45;66.30;;;;;;;-2.46;82.76;95410.82;1779167;80;21012;-79
2021/12/09 01:13:07;;;;;;;122.70;68.57;;;;;;;-2.46;82.76;95410.82;1774129;80;20976;-80
2021/12/09 01:15:32;;;;;;;121.95;66.62;;;;;;;-2.41;82.90;95416.83;1779032;80;21036;-79
2021/12/09 01:17:59;;;;;;;126.78;70.12;;;;;;;-2.42;82.83;95410.94;1774245;80;21004;-79
2021/12/09 01:20:26;;;;;;;123.55;70.40;;;;;;;-2.41;82.83;95420.64;1776973;80;21458;-79
2021/12/09 01:22:56;;;;;;;126.85;66.97;;;;;;;-2.38;82.95;95409.41;1763700;80;21103;-79
2021/12/09 01:25:23;;;;;;;114.00;65.60;;;;;;;-2.37;82.71;95417.38;1753037;80;21087;-80
2021/12/09 01:27:51;;;;;;;122.87;65.92;;;;;;;-2.39;82.77;95419.24;1771610;80;21076;-79
2021/12/09 01:30:18;;;;;;;115.77;65.83;;;;;;;-2.39;82.80;95411.61;1768628;80;21096;-79
2021/12/09 01:32:50;;;;;;;117.70;65.05;;;;;;;-2.44;82.72;95409.45;1770429;80;21039;-79
2021/12/09 01:35:21;;;;;;;111.50;63.85;;;;;;;-2.47;82.90;95415.57;1749409;80;21431;-80
2021/12/09 01:37:48;;;;;;;111.42;60.73;;;;;;;-2.44;83.08;95411.99;1751480;80;21019;-79
2021/12/09 01:40:14;;;;;;;114.40;62.38;;;;;;;-2.41;83.19;95396.47;1760926;80;21435;-79
2021/12/09 01:42:42;;;;;;;107.10;61.33;;;;;;;-2.38;83.32;95394.94;1768764;80;21039;-80
2021/12/09 01:45:09;;;;;;;102.40;58.87;;;;;;;-2.34;83.42;95390.40;1774191;80;21426;-80
2021/12/09 01:47:35;;;;;;;96.80;55.15;;;;;;;-2.32;83.53;95397.44;1763557;79;21103;-80
2021/12/09 01:50:03;;;;;;;95.03;55.03;;;;;;;-2.26;83.73;95402.84;1768282;80;21095;-79
2021/12/09 01:52:28;;;;;;;100.95;57.08;;;;;;;-2.19;83.79;95403.93;1758276;80;21048;-80
2021/12/09 01:54:54;;;;;;;103.75;58.33;;;;;;;-2.14;83.77;95417.06;1779552;80;21371;-79
2021/12/09 01:57:20;;;;;;;102.62;56.95;;;;;;;-2.09;83.67;95416.71;1766114;80;21043;-80
2021/12/09 01:59:48;;;;;;;109.83;60.03;;;;;;;-2.07;83.55;95405.13;1777013;80;21094;-79
2021/12/09 02:02:13;;;;;;;95.70;58.13;;;;;;;-2.08;83.57;95402.24;1775437;80;21442;-80
2021/12/09 02:04:39;;;;;;;113.57;61.10;;;;;;;-2.05;83.62;95385.44;1772274;80;21382;-79
2021/12/09 02:07:05;;;;;;;101.07;55.45;;;;;;;-2.02;83.79;95379.61;1778659;79;21078;-80
2021/12/09 02:09:31;;;;;;;94.77;55.63;;;;;;;-2.02;83.66;95373.25;1771915;80;21115;-80
2021/12/09 02:11:56;;;;;;;95.70;54.75;;;;;;;-2.04;83.67;95373.84;1763492;80;21085;-80
2021/12/09 02:14:22;;;;;;;63.58;36.17;;;;;;;-2.05;83.74;95371.44;1766707;80;21422;-80
2021/12/09 02:16:48;;;;;;;60.98;33.73;;;;;;;-2.05;83.72;95380.34;1780456;80;20972;-80
2021/12/09 02:19:14;;;;;;;55.00;31.40;;;;;;;-2.04;83.78;95384.50;1766879;80;21125;-80
2021/12/09 02:21:42;;;;;;;56.63;32.28;;;;;;;-2.01;84.01;95391.88;1771119;80;20980;-79
2021/12/09 02:24:15;;;;;;;59.70;36.13;;;;;;;-1.98;84.19;95389.87;1764709;80;21067;-80
2021/12/09 02:26:44;;;;;;;66.75;39.92;;;;;;;-1.94;84.30;95395.06;1749410;80;21382;-80
2021/12/09 02:29:12;;;;;;;72.15;41.08;;;;;;;-1.84;84.47;95397.16;1757150;80;21036;-80
2021/12/09 02:31:39;;;;;;;66.65;40.50;;;;;;;-1.79;84.37;95398.50;1751007;80;20959;-81
2021/12/09 02:34:05;;;;;;;70.15;39.42;;;;;;;-1.73;84.17;95403.89;1781094;80;21007;-80
2021/12/09 02:36:35;;;;;;;77.97;43.15;;;;;;;-1.72;84.12;95402.95;1777371;80;21138;-80
2021/12/09 02:38:58;;;;;;;77.82;44.65;;;;;;;-1.69;83.98;95403.16;1749219;81;21075;-80
2021/12/09 02:41:25;;;;;;;92.85;49.13;;;;;;;-1.68;83.99;95400.48;1764618;80;21166;-80
2021/12/09 02:43:55;;;;;;;90.10;49.77;;;;;;;-1.65;83.82;95401.95;1775904;80;21473;-80
2021/12/09 02:46:24;;;;;;;90.72;49.60;;;;;;;-1.65;83.66;95393.84;1781572;80;21516;-80
2021/12/09 02:48:49;;;;;;;82.90;47.38;;;;;;;-1.68;83.65;95379.30;1769303;80;21039;-80
2021/12/09 02:51:15;;;;;;;84.17;49.45;;;;;;;-1.67;83.80;95376.62;1770135;80;20984;-81
2021/12/09 02:53:41;;;;;;;84.22;49.05;;;;;;;-1.71;83.60;95380.84;1766363;80;21011;-80
2021/12/09 02:56:07;;;;;;;78.80;43.83;;;;;;;-1.71;83.83;95379.09;1758881;80;21355;-79
2021/12/09 02:58:33;;;;;;;88.12;50.08;;;;;;;-1.68;83.79;95388.21;1771821;80;21031;-80
2021/12/09 03:01:06;;;;;;;84.13;49.33;;;;;;;-1.65;84.02;95390.49;1758434;80;21035;-80
2021/12/09 03:03:32;;;;;;;84.47;51.02;;;;;;;-1.65;83.81;95402.76;1779351;80;21134;-80
2021/12/09 03:05:58;;;;;;;85.80;49.63;;;;;;;-1.64;83.90;95409.46;1780454;80;21099;-80
2021/12/09 03:08:34;;;;;;;100.67;57.15;;;;;;;-1.62;83.92;95413.98;1770125;80;21049;-80
2021/12/09 03:10:52;;;;;;;96.60;55.65;;;;;;;-1.59;83.92;95427.73;1765223;80;21011;-80
2021/12/09 03:13:18;;;;;;;101.22;59.08;;;;;;;-1.59;83.67;95434.09;1762708;80;21039;-80
2021/12/09 03:15:44;;;;;;;102.62;61.15;;;;;;;-1.58;83.76;95433.16;1749117;80;21051;-80
2021/12/09 03:18:11;;;;;;;95.40;54.88;;;;;;;-1.55;83.69;95422.70;1779485;80;22094;-80
2021/12/09 03:20:37;;;;;;;98.55;55.52;;;;;;;-1.59;83.67;95423.91;1751463;80;21035;-80
2021/12/09 03:23:04;;;;;;;98.82;54.42;;;;;;;-1.60;83.68;95426.59;1765558;80;20985;-80
2021/12/09 03:25:30;;;;;;;97.40;53.02;;;;;;;-1.62;83.76;95427.99;1759494;80;21414;-80
2021/12/09 03:27:56;;;;;;;90.95;52.93;;;;;;;-1.62;83.67;95420.35;1775506;80;20999;-80
2021/12/09 03:30:21;;;;;;;93.85;54.73;;;;;;;-1.61;83.61;95419.88;1750791;80;21085;-80
2021/12/09 03:32:47;;;;;;;95.22;52.43;;;;;;;-1.70;83.45;95402.82;1770516;80;21495;-80
2021/12/09 03:35:13;;;;;;;92.12;51.98;;;;;;;-1.72;83.46;95410.59;1764319;80;21461;-80
2021/12/09 03:37:39;;;;;;;87.30;51.25;;;;;;;-1.71;83.72;95419.04;1776334;80;20971;-80
2021/12/09 03:40:08;;;;;;;88.70;49.50;;;;;;;-1.68;83.86;95422.13;1759706;79;21050;-80
2021/12/09 03:42:34;;;;;;;77.90;45.83;;;;;;;-1.62;83.96;95428.46;1769401;80;21023;-80
2021/12/09 03:45:00;;;;;;;90.30;52.83;;;;;;;-1.57;83.85;95419.95;1765207;80;21390;-80
2021/12/09 03:47:28;;;;;;;91.82;55.17;;;;;;;-1.57;84.06;95425.84;1776061;80;21034;-80
2021/12/09 03:49:54;;;;;;;89.70;52.45;;;;;;;-1.55;84.04;95421.89;1780515;80;21348;-80
2021/12/09 03:52:20;;;;;;;90.57;53.25;;;;;;;-1.55;83.97;95423.17;1770267;80;21001;-80
2021/12/09 03:54:45;;;;;;;85.67;47.70;;;;;;;-1.52;84.11;95413.52;1766021;80;20972;-80
2021/12/09 03:57:12;;;;;;;82.37;49.40;;;;;;;-1.52;84.04;95417.80;1771243;80;21046;-80
2021/12/09 03:59:39;;;;;;;77.70;47.20;;;;;;;-1.55;83.94;95429.07;1751805;80;21123;-80
2021/12/09 04:02:05;;;;;;;82.50;49.30;;;;;;;-1.56;84.05;95431.28;1749400;80;21123;-80
2021/12/09 04:04:31;;;;;;;82.75;51.48;;;;;;;-1.57;83.88;95427.59;1760784;80;21102;-80
2021/12/09 04:06:57;;;;;;;89.75;53.42;;;;;;;-1.58;84.10;95426.79;1780745;80;21083;-80
2021/12/09 04:09:23;;;;;;;79.55;48.87;;;;;;;-1.57;84.20;95418.67;1780921;80;21422;-80
2021/12/09 04:11:50;;;;;;;91.35;51.60;;;;;;;-1.55;84.28;95410.44;1760075;80;21095;-80
2021/12/09 04:14:16;;;;;;;83.50;47.88;;;;;;;-1.49;84.45;95409.89;1781979;79;20983;-80
2021/12/09 04:16:42;;;;;;;80.30;47.62;;;;;;;-1.47;84.41;95413.59;1761591;80;21047;-80
2021/12/09 04:19:08;;;;;;;81.40;49.27;;;;;;;-1.44;84.61;95416.70;1738663;80;21012;-80
2021/12/09 04:21:35;;;;;;;80.00;48.52;;;;;;;-1.40;84.83;95423.13;1780297;80;21051;-80
2021/12/09 04:24:07;;;;;;;73.80;45.23;;;;;;;-1.39;84.53;95418.38;1771217;80;21480;-80
2021/12/09 04:26:28;;;;;;;78.75;46.02;;;;;;;-1.37;84.65;95411.87;1773692;80;21008;-80
2021/12/09 04:28:54;;;;;;;79.45;46.45;;;;;;;-1.40;84.64;95414.22;1779649;80;21032;-79
2021/12/09 04:31:20;;;;;;;64.42;40.08;;;;;;;-1.44;84.96;95391.22;1761976;80;21452;-80
2021/12/09 04:33:47;;;;;;;64.25;40.73;;;;;;;-1.42;85.25;95377.07;1765582;80;21069;-80
2021/12/09 04:36:13;;;;;;;64.70;38.02;;;;;;;-1.44;85.30;95370.84;1773593;80;21064;-80
2021/12/09 04:38:39;;;;;;;62.33;38.33;;;;;;;-1.39;85.94;95367.87;1775154;79;21449;-80
2021/12/09 04:41:05;;;;;;;63.87;35.28;;;;;;;-1.32;86.01;95359.55;1779798;80;21115;-80
2021/12/09 04:43:31;;;;;;;57.95;34.03;;;;;;;-1.24;86.21;95358.90;1771115;80;21155;-80
2021/12/09 04:45:59;;;;;;;68.42;42.67;;;;;;;-1.18;86.29;95362.64;1779046;80;20980;-80
2021/12/09 04:48:24;;;;;;;77.80;46.30;;;;;;;-1.09;86.39;95382.25;1764980;80;21031;-80
2021/12/09 04:50:50;;;;;;;75.28;45.05;;;;;;;-1.07;86.34;95377.34;1777540;80;21035;-80
2021/12/09 04:53:16;;;;;;;76.15;46.45;;;;;;;-1.05;86.29;95363.19;1778142;80;21421;-80
2021/12/09 04:55:42;;;;;;;73.87;42.13;;;;;;;-1.08;86.03;95354.53;1779139;80;21007;-80
2021/12/09 04:58:07;;;;;;;76.92;45.00;;;;;;;-1.07;86.07;95367.62;1754759;80;21003;-80
2021/12/09 05:00:38;;;;;;;72.32;45.65;;;;;;;-1.07;85.84;95372.72;1749263;80;21190;-80
2021/12/09 05:03:09;;;;;;;76.05;43.68;;;;;;;-1.06;85.72;95379.42;1774232;80;21060;-80
2021/12/09 05:05:46;;;;;;;72.17;45.05;;;;;;;-1.05;85.76;95403.50;1776439;80;21090;-80
2021/12/09 05:08:14;;;;;;;75.55;45.80;;;;;;;-1.00;85.86;95414.09;1733319;81;21403;-80
2021/12/09 05:13:27;;;;;;;69.85;42.15;;;;;;;-0.99;85.55;95393.23;1769929;80;20988;-80
2021/12/09 05:15:53;;;;;;;69.35;45.67;;;;;;;-1.02;85.30;95390.48;1775598;80;21015;-80
2021/12/09 05:18:21;;;;;;;76.65;47.08;;;;;;;-1.15;85.07;95378.47;1779768;81;21074;-81
2021/12/09 05:20:48;;;;;;;81.57;48.68;;;;;;;-1.18;85.36;95385.59;1780468;80;21116;-81
2021/12/09 05:23:16;;;;;;;81.78;49.50;;;;;;;-1.15;85.54;95391.69;1772350;80;21114;-81
2021/12/09 05:25:42;;;;;;;76.42;47.27;;;;;;;-1.10;85.61;95392.91;1760337;80;21095;-81
2021/12/09 05:28:10;;;;;;;73.25;45.75;;;;;;;-1.07;85.64;95385.46;1779066;80;21023;-80
2021/12/09 05:32:07;;;;;;;69.30;44.33;;;;;;;-1.08;85.50;95381.30;1765571;80;21082;-80
2021/12/09 05:33:07;;;;;;;78.52;44.48;;;;;;;-1.09;85.61;95392.44;1780971;80;21443;-81
2021/12/09 05:35:33;;;;;;;71.22;40.90;;;;;;;-1.11;85.57;95407.88;1775504;80;21096;-81
2021/12/09 05:38:00;;;;;;;71.87;43.83;;;;;;;-1.08;85.62;95414.45;1765005;80;21185;-81
2021/12/09 05:40:27;;;;;;;68.25;43.13;;;;;;;-1.08;85.73;95406.33;1729930;80;21063;-80
2021/12/09 05:42:52;;;;;;;74.07;44.05;;;;;;;-1.03;85.83;95412.29;1772727;80;21141;-81
2021/12/09 05:45:18;;;;;;;80.32;44.65;;;;;;;-1.03;85.70;95419.47;1779339;80;21430;-81
2021/12/09 05:47:44;;;;;;;70.12;40.95;;;;;;;-1.07;85.31;95416.05;1726358;81;21084;-81
2021/12/09 05:50:11;;;;;;;72.42;39.65;;;;;;;-1.11;85.45;95414.72;1758558;79;20991;-81
2021/12/09 05:52:37;;;;;;;67.55;41.05;;;;;;;-1.13;85.36;95416.60;1773178;80;20969;-81
2021/12/09 05:55:03;;;;;;;68.97;40.78;;;;;;;-1.14;85.31;95415.80;1765287;80;21627;-80
2021/12/09 05:57:29;;;;;;;73.57;41.25;;;;;;;-1.16;85.11;95421.94;1773455;80;21012;-81
2021/12/09 05:59:55;;;;;;;77.58;44.20;;;;;;;-1.13;85.30;95428.08;1764213;80;21449;-81
2021/12/09 06:02:22;;;;;;;68.75;41.35;;;;;;;-1.12;85.27;95420.76;1774884;80;21066;-80
2021/12/09 06:04:47;;;;;;;78.20;42.95;;;;;;;-1.11;85.11;95417.27;1746547;80;21459;-80
2021/12/09 06:07:14;;;;;;;70.15;39.35;;;;;;;-1.10;85.19;95440.08;1770658;80;20991;-81
2021/12/09 06:09:39;;;;;;;72.12;41.02;;;;;;;-1.09;85.30;95438.33;1775623;79;21055;-80
2021/12/09 06:12:06;;;;;;;73.52;41.58;;;;;;;-1.07;85.34;95437.73;1764868;80;21086;-80
2021/12/09 06:14:32;;;;;;;75.70;41.42;;;;;;;-1.07;85.27;95438.53;1774777;80;21019;-81
2021/12/09 06:16:58;;;;;;;79.82;44.48;;;;;;;-1.04;85.28;95432.36;1763198;80;21087;-80
2021/12/09 06:19:24;;;;;;;59.75;37.23;;;;;;;-1.05;85.22;95429.47;1778542;80;21457;-81
2021/12/09 06:21:50;;;;;;;61.80;39.20;;;;;;;-1.12;84.92;95429.69;1744991;80;21011;-81
2021/12/09 06:24:15;;;;;;;60.00;38.78;;;;;;;-1.12;84.98;95436.86;1774889;80;21003;-80
2021/12/09 06:26:41;;;;;;;60.90;35.15;;;;;;;-1.21;84.52;95434.63;1770930;80;21035;-80
2021/12/09 06:29:07;;;;;;;58.85;37.42;;;;;;;-1.22;84.93;95436.84;1767296;80;21382;-81
2021/12/09 06:31:34;;;;;;;66.02;37.90;;;;;;;-1.21;84.94;95439.72;1738092;80;21503;-81
2021/12/09 06:34:00;;;;;;;82.45;42.13;;;;;;;-1.19;84.96;95438.31;1763796;80;21107;-81
2021/12/09 06:36:26;;;;;;;60.03;36.98;;;;;;;-1.17;84.84;95433.08;1780071;80;21055;-81
2021/12/09 06:38:52;;;;;;;62.10;36.83;;;;;;;-1.29;84.47;95430.67;1770580;80;21067;-80
2021/12/09 06:41:17;;;;;;;68.78;39.25;;;;;;;-1.33;84.57;95431.05;1768493;80;21008;-80
2021/12/09 06:43:44;;;;;;;66.53;38.90;;;;;;;-1.39;84.58;95424.75;1764655;80;21118;-81
2021/12/09 06:46:12;;;;;;;63.55;36.65;;;;;;;-1.37;84.76;95432.25;1748335;80;21087;-81
2021/12/09 06:48:38;;;;;;;58.73;34.95;;;;;;;-1.34;85.08;95439.16;1779124;80;21011;-81
2021/12/09 06:51:05;;;;;;;71.20;39.45;;;;;;;-1.34;85.02;95436.61;1780107;80;21034;-81
2021/12/09 06:53:35;;;;;;;64.70;38.70;;;;;;;-1.34;85.32;95445.53;1774680;80;21031;-80
2021/12/09 06:56:01;;;;;;;61.80;36.25;;;;;;;-1.34;85.09;95454.45;1778876;80;21382;-80
2021/12/09 06:58:26;;;;;;;56.23;35.83;;;;;;;-1.43;84.72;95469.27;1754790;80;21453;-81
2021/12/09 07:00:54;;;;;;;63.50;36.30;;;;;;;-1.45;85.06;95467.33;1779681;79;21001;-80
2021/12/09 07:03:21;;;;;;;58.90;35.55;;;;;;;-1.43;85.10;95460.34;1780310;80;21008;-80
2021/12/09 07:05:51;;;;;;;59.08;35.60;;;;;;;-1.39;85.09;95457.87;1780455;80;21003;-80
2021/12/09 07:08:17;;;;;;;57.78;35.52;;;;;;;-1.37;85.21;95468.73;1776402;80;21130;-81
2021/12/09 07:10:43;;;;;;;60.80;34.75;;;;;;;-1.32;85.42;95465.31;1765822;80;21122;-81
2021/12/09 07:13:08;;;;;;;55.03;33.73;;;;;;;-1.26;85.60;95472.92;1775896;79;21055;-82
2021/12/09 07:15:34;;;;;;;58.98;33.83;;;;;;;-1.18;86.07;95464.61;1765979;80;20996;-80
2021/12/09 07:18:00;;;;;;;57.13;33.10;;;;;;;-1.11;85.98;95453.77;1774743;80;21011;-80
2021/12/09 07:20:27;;;;;;;49.93;30.88;;;;;;;-1.05;86.07;95444.77;1771070;80;21489;-81
2021/12/09 07:22:54;;;;;;;52.48;29.60;;;;;;;-0.97;86.17;95444.92;1771224;80;21371;-81
2021/12/09 07:25:21;;;;;;;46.77;27.07;;;;;;;-0.92;86.24;95449.14;1754990;79;21161;-81
2021/12/09 07:27:47;;;;;;;52.90;31.73;;;;;;;-0.82;86.46;95460.13;1760280;80;21023;-80
2021/12/09 07:30:15;;;;;;;46.68;26.73;;;;;;;-0.78;86.39;95461.50;1742585;80;20983;-81
2021/12/09 07:32:42;;;;;;;48.30;28.12;;;;;;;-0.72;86.27;95458.87;1764484;80;21030;-81
2021/12/09 07:35:08;;;;;;;38.40;25.40;;;;;;;-0.67;86.28;95464.36;1760151;80;20988;-81
2021/12/09 07:37:37;;;;;;;39.40;24.85;;;;;;;-0.62;86.41;95460.48;1777717;80;21042;-81
2021/12/09 07:40:06;;;;;;;44.23;26.07;;;;;;;-0.58;86.53;95459.73;1775275;80;21662;-80
2021/12/09 07:42:32;;;;;;;52.80;31.52;;;;;;;-0.62;86.29;95460.48;1765092;80;21488;-81
2021/12/09 07:44:57;;;;;;;54.77;33.05;;;;;;;-0.62;86.31;95466.06;1754137;80;20991;-81
2021/12/09 07:47:23;;;;;;;53.45;31.73;;;;;;;-0.57;86.26;95468.20;1749372;80;21007;-81
2021/12/09 07:49:49;;;;;;;55.85;34.95;;;;;;;-0.57;86.27;95457.52;1763217;80;21453;-81
2021/12/09 07:52:15;;;;;;;58.28;32.93;;;;;;;-0.53;86.21;95463.14;1753066;80;21345;-81
2021/12/09 07:54:41;;;;;;;64.12;36.33;;;;;;;-0.51;86.03;95472.74;1754615;80;21071;-81
2021/12/09 07:57:07;;;;;;;71.25;41.13;;;;;;;-0.46;85.93;95482.09;1743707;80;20992;-81
2021/12/09 07:59:33;;;;;;;105.97;55.10;;;;;;;-0.43;85.78;95481.34;1760520;80;21039;-81
2021/12/09 08:01:59;;;;;;;89.60;51.48;;;;;;;-0.37;85.23;95484.62;1780951;80;21090;-81
2021/12/09 08:04:26;;;;;;;84.97;52.40;;;;;;;-0.26;85.15;95487.97;1776234;80;21051;-81
2021/12/09 08:06:51;;;;;;;81.45;49.42;;;;;;;-0.22;85.13;95477.81;1765614;79;21075;-81
2021/12/09 08:09:17;;;;;;;79.95;47.33;;;;;;;-0.21;84.69;95489.16;1780561;80;21094;-81
2021/12/09 08:11:44;;;;;;;80.77;48.63;;;;;;;-0.24;84.47;95484.34;1781903;79;21016;-81
2021/12/09 08:14:11;;;;;;;84.60;48.68;;;;;;;-0.20;84.68;95486.94;1765354;80;21039;-80
2021/12/09 08:16:39;;;;;;;80.03;48.63;;;;;;;-0.20;84.61;95488.69;1765334;80;21042;-81
2021/12/09 08:19:08;;;;;;;87.37;46.40;;;;;;;-0.20;84.39;95474.65;1781319;80;21081;-80
2021/12/09 08:21:35;;;;;;;91.75;50.30;;;;;;;-0.22;84.49;95470.96;1758713;80;21017;-81
2021/12/09 08:24:04;;;;;;;84.77;48.73;;;;;;;-0.22;84.32;95476.53;1772765;80;20994;-81
2021/12/09 08:26:30;;;;;;;102.85;56.90;;;;;;;-0.22;84.14;95476.53;1768051;80;21425;-82
2021/12/09 08:28:56;;;;;;;97.02;58.00;;;;;;;-0.26;83.99;95487.97;1727182;80;21063;-82
2021/12/09 08:31:22;;;;;;;99.10;56.45;;;;;;;-0.25;84.22;95489.11;1776298;80;20991;-82
2021/12/09 08:33:47;;;;;;;120.97;73.02;;;;;;;-0.19;84.23;95489.02;1766125;80;21070;-82
2021/12/09 08:36:13;;;;;;;89.62;53.08;;;;;;;-0.13;84.19;95484.66;1781403;80;21401;-82
2021/12/09 08:38:39;;;;;;;89.05;52.98;;;;;;;-0.12;83.74;95475.59;1755512;80;21070;-82
2021/12/09 08:41:05;;;;;;;86.45;49.20;;;;;;;0.02;84.06;95468.44;1752078;80;21078;-82
2021/12/09 08:43:31;;;;;;;78.85;45.58;;;;;;;0.10;83.94;95460.86;1780530;80;21125;-82
2021/12/09 08:45:57;;;;;;;87.35;53.38;;;;;;;-0.07;82.79;95457.28;1778728;80;21022;-82
2021/12/09 08:48:24;;;;;;;98.80;59.18;;;;;;;-0.27;82.83;95460.36;1757272;80;20960;-82
2021/12/09 08:50:50;;;;;;;99.10;54.60;;;;;;;-0.31;83.13;95459.03;1775374;80;21441;-82
2021/12/09 08:53:19;;;;;;;89.13;54.65;;;;;;;-0.32;83.35;95451.05;1780108;80;21030;-82
2021/12/09 08:55:45;;;;;;;93.55;52.70;;;;;;;-0.28;83.49;95456.67;1734723;80;21083;-82
2021/12/09 08:58:11;;;;;;;80.83;48.60;;;;;;;-0.26;83.25;95460.70;1779336;80;21064;-82
2021/12/09 09:00:37;;;;;;;88.60;55.23;;;;;;;-0.39;82.47;95467.84;1751999;80;21064;-82
2021/12/09 09:03:05;;;;;;;82.72;51.60;;;;;;;-0.45;82.77;95476.85;1776394;80;21008;-82
2021/12/09 09:05:32;;;;;;;82.10;49.38;;;;;;;-0.47;82.70;95474.91;1775797;80;21098;-82
2021/12/09 09:07:58;;;;;;;77.62;48.02;;;;;;;-0.45;82.91;95475.58;1780411;80;20992;-82
2021/12/09 09:10:27;;;;;;;79.03;47.25;;;;;;;-0.44;83.05;95479.73;1758973;80;21019;-82
2021/12/09 09:12:53;;;;;;;75.28;47.85;;;;;;;-0.42;82.99;95475.77;1765471;80;21089;-82
2021/12/09 09:15:22;;;;;;;81.25;49.60;;;;;;;-0.43;82.92;95471.14;1771220;80;21074;-82
2021/12/09 09:17:48;;;;;;;87.40;50.60;;;;;;;-0.37;83.05;95473.13;1779142;80;21088;-82
2021/12/09 09:20:16;;;;;;;87.02;47.88;;;;;;;-0.33;82.99;95474.94;1769271;80;21080;-82
2021/12/09 09:22:42;;;;;;;75.05;45.48;;;;;;;-0.31;82.94;95482.02;1774693;80;21079;-82
2021/12/09 09:25:17;;;;;;;71.35;44.40;;;;;;;-0.30;82.83;95477.23;1763873;80;21063;-82
2021/12/09 09:27:46;;;;;;;73.15;44.85;;;;;;;-0.25;82.72;95468.69;1768850;80;21024;-82
2021/12/09 09:30:17;;;;;;;69.27;43.90;;;;;;;-0.50;82.44;95439.43;1773471;80;21004;-82
2021/12/09 09:32:41;;;;;;;80.53;46.83;;;;;;;-0.35;82.65;95453.38;1765493;80;21011;-82
2021/12/09 09:35:09;;;;;;;79.03;46.92;;;;;;;-0.39;82.55;95443.59;1763627;80;21079;-82
2021/12/09 09:37:35;;;;;;;81.12;46.83;;;;;;;-0.35;82.85;95440.61;1776261;80;21012;-82
2021/12/09 09:40:05;;;;;;;81.28;48.98;;;;;;;-0.33;82.50;95435.37;1758127;80;21339;-82
2021/12/09 09:45:09;;;;;;;80.75;48.42;;;;;;;-0.18;83.16;95440.84;1769038;80;21043;-82
2021/12/09 09:47:35;;;;;;;80.03;45.58;;;;;;;-0.03;82.88;95444.09;1758487;80;21082;-82
2021/12/09 09:50:02;;;;;;;75.55;47.45;;;;;;;0.03;82.75;95443.22;1779627;80;21395;-83
2021/12/09 09:52:27;;;;;;;76.97;45.23;;;;;;;0.08;82.64;95440.57;1779789;80;21004;-82
2021/12/09 09:54:55;;;;;;;78.50;50.10;;;;;;;0.12;82.70;95443.64;1774279;80;21061;-82
2021/12/09 09:57:21;;;;;;;80.77;48.05;;;;;;;0.10;82.08;95445.06;1734897;80;21015;-82
2021/12/09 09:59:47;;;;;;;80.25;47.48;;;;;;;0.07;82.08;95434.33;1769565;80;21212;-82
2021/12/09 10:02:13;;;;;;;80.62;49.08;;;;;;;-0.03;81.62;95431.32;1775206;80;21055;-82
2021/12/09 10:07:08;;;;;;;80.90;48.68;;;;;;;-0.12;81.61;95417.33;1780438;80;20972;-82
2021/12/09 10:09:34;;;;;;;86.82;50.43;;;;;;;-0.16;81.73;95417.28;1773559;80;21028;-82
2021/12/09 10:12:01;;;;;;;82.80;48.25;;;;;;;-0.09;82.14;95405.08;1776098;79;21043;-82
2021/12/09 10:14:32;;;;;;;78.05;50.55;;;;;;;0.03;82.34;95401.08;1771660;80;21561;-82
2021/12/09 10:17:17;;;;;;;71.20;41.40;;;;;;;0.10;82.39;95397.00;1749933;80;21067;-82
2021/12/09 10:19:51;;;;;;;80.83;48.68;;;;;;;0.15;82.54;95394.34;1762240;80;21075;-82
2021/12/09 10:22:22;;;;;;;80.20;49.70;;;;;;;0.22;82.61;95391.57;1755248;80;21047;-82
2021/12/09 10:24:51;;;;;;;81.03;51.73;;;;;;;0.34;82.71;95385.80;1770834;80;21110;-82
2021/12/09 10:27:32;;;;;;;68.80;41.77;;;;;;;0.44;82.63;95387.01;1753470;80;21039;-82
2021/12/09 10:30:10;;;;;;;77.12;47.88;;;;;;;0.45;82.05;95385.59;1768252;80;20995;-82
2021/12/09 10:32:35;;;;;;;79.20;46.68;;;;;;;0.33;81.75;95386.75;1761986;80;21162;-82
2021/12/09 10:35:08;;;;;;;81.10;48.83;;;;;;;0.41;82.20;95389.38;1762838;80;21441;-82
2021/12/09 10:37:34;;;;;;;77.12;48.33;;;;;;;0.42;82.05;95386.35;1781019;80;21015;-83
2021/12/09 10:40:11;;;;;;;76.28;46.80;;;;;;;0.42;82.14;95380.77;1760488;80;21035;-82
2021/12/09 10:42:53;;;;;;;73.95;46.23;;;;;;;0.48;82.19;95380.18;1760785;80;20992;-82
2021/12/09 10:45:28;;;;;;;59.80;37.93;;;;;;;0.45;81.57;95373.28;1765723;80;20995;-82
2021/12/09 10:48:04;;;;;;;76.57;44.95;;;;;;;0.42;81.68;95380.77;1754597;80;21020;-82
2021/12/09 10:50:42;;;;;;;74.00;45.48;;;;;;;0.41;82.06;95374.52;1754945;80;21030;-83
2021/12/09 10:56:02;;;;;;;63.40;39.93;;;;;;;0.53;81.91;95361.41;1758343;80;20968;-82
2021/12/09 10:58:33;;;;;;;71.57;45.20;;;;;;;0.42;81.09;95364.63;1769588;80;21047;-82
2021/12/09 11:01:09;;;;;;;71.20;41.80;;;;;;;0.30;81.39;95369.13;1768502;80;21410;-82
2021/12/09 11:03:43;;;;;;;73.57;44.15;;;;;;;0.23;81.44;95364.27;1780964;80;21473;-82
2021/12/09 11:06:18;;;;;;;67.92;41.90;;;;;;;0.15;81.54;95366.72;1769540;80;20980;-82
2021/12/09 11:08:50;;;;;;;61.90;35.92;;;;;;;0.15;81.52;95358.59;1752550;80;21075;-82
2021/12/09 11:11:21;;;;;;;69.07;42.65;;;;;;;0.16;81.49;95359.39;1761021;80;21110;-82
2021/12/09 11:13:57;;;;;;;75.22;45.15;;;;;;;0.04;80.94;95359.27;1768684;80;21023;-82
2021/12/09 11:16:42;;;;;;;72.35;42.35;;;;;;;-0.09;80.86;95359.59;1777844;79;20987;-82
2021/12/09 11:19:16;;;;;;;71.12;43.63;;;;;;;-0.06;81.35;95356.27;1765685;80;20996;-83
2021/12/09 11:21:46;;;;;;;66.60;43.68;;;;;;;-0.15;81.07;95340.55;1776073;80;21065;-82
2021/12/09 11:24:16;;;;;;;75.25;44.42;;;;;;;-0.15;81.38;95336.71;1750833;80;21118;-82
2021/12/09 11:26:57;;;;;;;69.87;42.67;;;;;;;-0.10;81.53;95335.80;1765807;80;21067;-82
2021/12/09 11:29:32;;;;;;;52.33;34.23;;;;;;;-0.06;81.44;95346.06;1779444;80;21007;-82